createdAt,value
2018-07-11T00:01:30.043Z,4.60
2018-07-11T00:03:59.076Z,4.50
2018-07-11T00:06:28.073Z,4.73
2018-07-11T00:08:57.070Z,4.63
2018-07-11T00:11:26.035Z,4.90
2018-07-11T00:13:54.995Z,4.93
2018-07-11T00:16:23.954Z,5.13
2018-07-11T00:18:52.942Z,5.60
2018-07-11T00:21:22.718Z,5.00
2018-07-11T00:23:51.778Z,5.30
2018-07-11T00:26:20.874Z,5.17
2018-07-11T00:28:50.461Z,5.30
2018-07-11T00:31:19.776Z,4.80
2018-07-11T00:33:49.150Z,5.60
2018-07-11T00:36:18.399Z,5.00
2018-07-11T00:38:47.847Z,5.33
2018-07-11T00:41:16.875Z,5.37
2018-07-11T00:43:45.972Z,5.37
2018-07-11T00:46:16.699Z,5.80
2018-07-11T00:48:45.962Z,4.87
2018-07-11T00:51:15.215Z,5.57
2018-07-11T00:53:44.252Z,5.77
2018-07-11T00:56:13.298Z,5.43
2018-07-11T00:59:48.020Z,5.20
2018-07-11T01:02:17.035Z,5.27
2018-07-11T01:04:46.044Z,5.60
2018-07-11T01:07:15.073Z,5.60
2018-07-11T01:09:46.297Z,5.30
2018-07-11T01:12:15.305Z,5.37
2018-07-11T01:14:44.970Z,5.40
2018-07-11T01:17:19.229Z,5.03
2018-07-11T01:19:48.603Z,5.63
2018-07-11T01:22:17.573Z,5.70
2018-07-11T01:24:46.538Z,5.40
2018-07-11T01:27:15.486Z,6.10
2018-07-11T01:29:44.493Z,6.40
2018-07-11T01:32:13.599Z,6.30
2018-07-11T01:34:43.509Z,6.30
2018-07-11T01:37:12.506Z,5.60
2018-07-11T01:39:41.550Z,5.90
2018-07-11T01:42:10.606Z,6.07
2018-07-11T01:44:39.627Z,6.30
2018-07-11T01:47:08.753Z,6.50
2018-07-11T01:49:37.714Z,5.90
2018-07-11T01:52:18.050Z,6.17
2018-07-11T01:54:47.075Z,6.33
2018-07-11T01:57:16.110Z,5.63
2018-07-11T01:59:45.095Z,6.10
2018-07-11T02:02:14.079Z,6.10
2018-07-11T02:04:43.062Z,6.17
2018-07-11T02:07:12.434Z,6.10
2018-07-11T02:09:41.673Z,6.57
2018-07-11T02:12:10.674Z,6.77
2018-07-11T02:14:39.874Z,7.00
2018-07-11T02:17:08.899Z,6.93
2018-07-11T02:19:37.950Z,6.90
2018-07-11T02:22:06.949Z,7.00
2018-07-11T02:24:35.950Z,6.73
2018-07-11T02:27:05.183Z,7.10
2018-07-11T02:29:34.171Z,6.80
2018-07-11T02:32:03.130Z,6.93
2018-07-11T02:34:34.734Z,6.90
2018-07-11T02:37:04.614Z,6.73
2018-07-11T02:39:33.972Z,6.80
2018-07-11T02:42:02.915Z,6.73
2018-07-11T02:44:32.150Z,6.77
2018-07-11T02:47:06.607Z,6.10
2018-07-11T02:49:35.638Z,6.70
2018-07-11T02:52:04.665Z,7.00
2018-07-11T02:54:33.620Z,7.23
2018-07-11T02:57:02.686Z,7.17
2018-07-11T02:59:31.796Z,9.23
2018-07-11T03:02:00.814Z,7.83
2018-07-11T03:04:29.798Z,8.17
2018-07-11T03:06:58.857Z,8.23
2018-07-11T03:09:27.828Z,7.77
2018-07-11T03:11:56.834Z,7.97
2018-07-11T03:14:25.811Z,7.70
2018-07-11T03:16:54.822Z,8.70
2018-07-11T03:19:23.783Z,7.40
2018-07-11T03:21:52.742Z,8.33
2018-07-11T03:24:21.770Z,7.80
2018-07-11T03:26:50.748Z,7.70
2018-07-11T03:29:19.749Z,8.10
2018-07-11T03:31:48.699Z,7.77
2018-07-11T03:34:17.667Z,7.67
2018-07-11T03:36:46.688Z,7.97
2018-07-11T03:39:15.978Z,8.00
2018-07-11T03:41:44.954Z,8.70
2018-07-11T03:44:13.973Z,8.13
2018-07-11T03:46:42.971Z,7.87
2018-07-11T03:49:11.976Z,8.30
2018-07-11T03:51:40.970Z,8.10
2018-07-11T03:54:09.926Z,8.90
2018-07-11T03:56:38.877Z,8.67
2018-07-11T03:59:07.886Z,8.30
2018-07-11T04:01:36.841Z,8.47
2018-07-11T04:04:05.803Z,8.67
2018-07-11T04:06:34.779Z,8.80
2018-07-11T04:09:03.925Z,8.43
2018-07-11T04:11:32.870Z,8.60
2018-07-11T04:14:01.867Z,8.50
2018-07-11T04:16:30.834Z,8.50
2018-07-11T04:18:59.851Z,8.57
2018-07-11T04:21:28.731Z,8.40
2018-07-11T04:23:57.806Z,9.03
2018-07-11T04:26:26.859Z,9.17
2018-07-11T04:28:55.807Z,9.10
2018-07-11T04:31:24.779Z,9.13
2018-07-11T04:33:53.822Z,9.40
2018-07-11T04:36:22.851Z,9.50
2018-07-11T04:38:52.282Z,9.10
2018-07-11T04:43:56.814Z,9.57
2018-07-11T04:46:25.804Z,9.20
2018-07-11T04:48:54.806Z,10.73
2018-07-11T04:51:23.815Z,9.73
2018-07-11T04:53:53.686Z,9.73
2018-07-11T04:56:22.749Z,9.13
2018-07-11T04:58:51.761Z,9.70
2018-07-11T05:01:20.719Z,9.07
2018-07-11T05:03:49.731Z,9.03
2018-07-11T05:06:18.683Z,8.67
2018-07-11T05:08:47.643Z,10.17
2018-07-11T05:11:16.684Z,10.87
2018-07-11T05:13:45.590Z,11.67
2018-07-11T05:16:14.570Z,9.67
2018-07-11T05:18:43.506Z,9.47
2018-07-11T05:21:12.602Z,8.93
2018-07-11T05:23:41.543Z,9.10
2018-07-11T05:26:10.568Z,8.63
2018-07-11T05:28:39.518Z,9.13
2018-07-11T05:31:08.508Z,9.03
2018-07-11T05:33:37.452Z,8.97
2018-07-11T05:36:06.403Z,9.27
2018-07-11T05:38:35.730Z,8.70
2018-07-11T05:41:04.750Z,9.67
2018-07-11T05:43:33.695Z,8.80
2018-07-11T05:46:02.658Z,8.00
2018-07-11T05:48:32.127Z,8.17
2018-07-11T05:51:01.364Z,7.73
2018-07-11T05:53:30.295Z,8.83
2018-07-11T05:55:59.263Z,9.47
2018-07-11T05:58:28.238Z,8.57
2018-07-11T06:00:57.183Z,9.60
2018-07-11T06:03:26.171Z,9.57
2018-07-11T06:05:55.158Z,9.60
2018-07-11T06:08:24.114Z,9.43
2018-07-11T06:10:53.162Z,9.20
2018-07-11T06:13:22.398Z,10.63
2018-07-11T06:15:51.900Z,10.20
2018-07-11T06:18:22.067Z,9.83
2018-07-11T06:20:51.049Z,10.50
2018-07-11T06:23:20.035Z,10.87
2018-07-11T06:25:48.998Z,9.80
2018-07-11T06:28:17.955Z,10.20
2018-07-11T06:30:46.932Z,10.73
2018-07-11T06:33:15.934Z,9.97
2018-07-11T06:35:44.887Z,10.67
2018-07-11T06:38:13.847Z,11.17
2018-07-11T06:40:42.839Z,12.13
2018-07-11T06:43:11.795Z,11.80
2018-07-11T06:45:40.758Z,12.70
2018-07-11T06:48:09.763Z,11.37
2018-07-11T06:50:38.714Z,11.80
2018-07-11T06:53:07.734Z,13.10
2018-07-11T06:55:36.762Z,11.20
2018-07-11T06:58:05.751Z,10.90
2018-07-11T07:00:34.827Z,10.93
2018-07-11T07:03:03.805Z,10.67
2018-07-11T07:05:32.891Z,9.20
2018-07-11T07:08:01.844Z,10.23
2018-07-11T07:10:30.792Z,11.60
2018-07-11T07:12:59.795Z,10.87
2018-07-11T07:15:28.935Z,10.70
2018-07-11T07:17:57.909Z,9.10
2018-07-11T07:20:26.890Z,8.87
2018-07-11T07:22:56.207Z,10.37
2018-07-11T07:25:25.166Z,8.50
2018-07-11T07:27:54.147Z,7.80
2018-07-11T07:30:23.101Z,8.37
2018-07-11T07:32:52.062Z,8.77
2018-07-11T07:35:21.115Z,9.40
2018-07-11T07:37:50.122Z,9.03
2018-07-11T07:40:19.086Z,9.77
2018-07-11T07:42:48.080Z,9.37
2018-07-11T07:45:17.133Z,9.43
2018-07-11T07:47:46.783Z,8.90
2018-07-11T07:50:16.666Z,8.30
2018-07-11T07:52:46.110Z,9.60
2018-07-11T07:55:15.079Z,7.80
2018-07-11T07:57:44.156Z,6.70
2018-07-11T08:00:15.994Z,8.17
2018-07-11T08:02:44.975Z,6.77
2018-07-11T08:05:13.948Z,5.43
2018-07-11T08:07:43.055Z,6.00
2018-07-11T08:10:12.002Z,5.30
2018-07-11T08:12:41.040Z,5.70
2018-07-11T08:15:09.942Z,5.90
2018-07-11T08:17:38.929Z,5.03
2018-07-11T08:20:07.898Z,4.30
2018-07-11T08:23:16.298Z,5.17
2018-07-11T08:25:57.910Z,4.73
2018-07-11T08:28:36.313Z,4.10
2018-07-11T08:31:18.256Z,4.80
2018-07-11T08:36:00.523Z,5.27
2018-07-11T08:38:40.023Z,5.20
2018-07-11T08:43:23.309Z,5.60
2018-07-11T08:48:16.087Z,6.20
2018-07-11T08:50:52.303Z,6.50
2018-07-11T08:53:49.361Z,6.60
2018-07-11T08:58:32.704Z,6.57
2018-07-11T09:03:16.829Z,5.93
2018-07-11T09:05:59.711Z,6.10
2018-07-11T09:10:45.474Z,5.83
2018-07-11T09:15:30.746Z,6.00
2018-07-11T09:18:28.309Z,5.37
2018-07-11T09:23:28.340Z,5.70
2018-07-11T09:25:57.307Z,5.57
2018-07-11T09:28:26.251Z,5.90
2018-07-11T09:30:55.266Z,6.20
2018-07-11T09:33:24.215Z,6.67
2018-07-11T09:35:53.154Z,6.63
2018-07-11T09:38:22.120Z,6.47
2018-07-11T09:40:51.119Z,7.07
2018-07-11T09:43:20.082Z,7.33
2018-07-11T09:45:49.051Z,5.90
2018-07-11T09:48:18.088Z,6.10
2018-07-11T09:50:47.402Z,6.27
2018-07-11T09:53:16.427Z,6.77
2018-07-11T09:55:45.443Z,6.00
2018-07-11T09:58:14.399Z,6.50
2018-07-11T10:00:48.767Z,5.87
2018-07-11T10:03:18.110Z,6.07
2018-07-11T10:05:47.082Z,5.93
2018-07-11T10:08:16.052Z,6.70
2018-07-11T10:10:45.043Z,6.20
2018-07-11T10:13:13.986Z,4.30
2018-07-11T10:15:42.990Z,4.70
2018-07-11T10:18:11.975Z,4.83
2018-07-11T10:20:40.993Z,5.07
2018-07-11T10:23:10.075Z,4.80
2018-07-11T10:25:39.042Z,4.53
2018-07-11T10:28:17.234Z,4.67
2018-07-11T10:30:46.211Z,4.83
2018-07-11T10:33:15.238Z,4.50
2018-07-11T10:35:44.247Z,3.83
2018-07-11T10:38:13.353Z,3.90
2018-07-11T10:40:43.169Z,4.10
2018-07-11T10:43:12.142Z,4.47
2018-07-11T10:45:41.143Z,4.17
2018-07-11T10:48:10.085Z,4.03
2018-07-11T10:50:39.371Z,4.00
2018-07-11T10:53:08.342Z,3.83
2018-07-11T10:55:37.346Z,3.90
2018-07-11T10:58:06.537Z,3.90
2018-07-11T11:00:37.142Z,3.90
2018-07-11T11:03:04.454Z,3.77
2018-07-11T11:05:33.415Z,4.00
2018-07-11T11:08:02.469Z,4.07
2018-07-11T11:10:31.479Z,3.73
2018-07-11T11:13:00.539Z,3.67
2018-07-11T11:15:29.519Z,3.90
2018-07-11T11:17:58.466Z,3.83
2018-07-11T11:20:27.507Z,4.30
2018-07-11T11:22:56.496Z,4.20
2018-07-11T11:25:25.471Z,4.40
2018-07-11T11:27:54.437Z,4.40
2018-07-11T11:30:23.553Z,3.93
2018-07-11T11:32:52.588Z,3.90
2018-07-11T11:35:21.598Z,4.27
2018-07-11T11:37:50.698Z,4.63
2018-07-11T11:40:19.670Z,3.97
2018-07-11T11:42:48.698Z,4.00
2018-07-11T11:45:17.631Z,3.50
2018-07-11T11:47:46.630Z,3.57
2018-07-11T11:50:15.623Z,3.70
2018-07-11T11:52:44.615Z,4.10
2018-07-11T11:55:13.595Z,3.93
2018-07-11T11:57:42.618Z,3.43
2018-07-11T12:00:11.557Z,3.50
2018-07-11T12:02:40.582Z,3.80
2018-07-11T12:05:09.583Z,4.10
2018-07-11T12:07:38.554Z,4.77
2018-07-11T12:10:08.439Z,4.00
2018-07-11T12:12:37.471Z,4.90
2018-07-11T12:15:06.816Z,4.30
2018-07-11T12:17:36.064Z,4.20
2018-07-11T12:20:05.270Z,4.80
2018-07-11T12:22:34.270Z,4.37
2018-07-11T12:25:03.262Z,4.77
2018-07-11T12:27:32.228Z,5.10
2018-07-11T12:30:01.183Z,5.77
2018-07-11T12:32:30.171Z,5.87
2018-07-11T12:34:59.288Z,5.60
2018-07-11T12:37:28.315Z,5.63
2018-07-11T12:39:57.339Z,5.77
2018-07-11T12:42:26.342Z,4.90
2018-07-11T12:44:55.330Z,5.30
2018-07-11T12:47:29.712Z,5.60
2018-07-11T12:49:58.703Z,6.00
2018-07-11T12:52:27.709Z,5.73
2018-07-11T12:54:57.954Z,5.83
2018-07-11T12:57:26.962Z,5.70
2018-07-11T12:59:55.955Z,5.73
2018-07-11T13:02:24.961Z,6.03
2018-07-11T13:04:53.962Z,5.60
2018-07-11T13:07:23.170Z,5.57
2018-07-11T13:09:52.199Z,5.20
2018-07-11T13:12:21.116Z,5.77
2018-07-11T13:14:50.222Z,5.77
2018-07-11T13:17:19.250Z,5.57
2018-07-11T13:19:48.274Z,5.83
2018-07-11T13:22:17.238Z,4.97
2018-07-11T13:24:46.203Z,5.23
2018-07-11T13:27:15.304Z,5.63
2018-07-11T13:29:45.809Z,5.70
2018-07-11T13:32:14.835Z,5.30
2018-07-11T13:34:43.870Z,5.13
2018-07-11T13:37:12.857Z,5.43
2018-07-11T13:39:41.843Z,5.70
2018-07-11T13:42:10.869Z,5.40
2018-07-11T13:44:39.868Z,6.07
2018-07-11T13:47:14.356Z,6.30
2018-07-11T13:49:43.330Z,6.83
2018-07-11T13:52:12.776Z,6.40
2018-07-11T13:54:41.843Z,6.63
2018-07-11T13:57:10.934Z,7.60
2018-07-11T13:59:39.938Z,7.67
2018-07-11T14:02:08.967Z,8.60
2018-07-11T14:04:37.948Z,8.03
2018-07-11T14:07:07.049Z,7.70
2018-07-11T14:09:36.011Z,8.00
2018-07-11T14:12:05.012Z,7.90
2018-07-11T14:14:34.343Z,8.10
2018-07-11T14:17:03.974Z,8.20
2018-07-11T14:19:33.103Z,7.97
2018-07-11T14:22:02.118Z,7.93
2018-07-11T14:24:31.110Z,9.13
2018-07-11T14:27:00.193Z,8.40
2018-07-11T14:29:30.363Z,8.37
2018-07-11T14:31:59.624Z,8.73
2018-07-11T14:34:28.822Z,8.50
2018-07-11T14:36:57.828Z,8.53
2018-07-11T14:39:26.850Z,8.93
2018-07-11T14:41:55.980Z,8.57
2018-07-11T14:44:24.954Z,8.67
2018-07-11T14:46:54.027Z,7.47
2018-07-11T14:49:23.018Z,7.03
2018-07-11T14:51:51.998Z,6.80
2018-07-11T14:54:20.988Z,5.63
2018-07-11T14:56:50.093Z,5.50
2018-07-11T14:59:19.070Z,5.20
2018-07-11T15:01:48.028Z,5.10
2018-07-11T15:04:16.975Z,4.57
2018-07-11T15:06:45.971Z,5.40
2018-07-11T15:09:15.139Z,5.27
2018-07-11T15:11:44.385Z,5.40
2018-07-11T15:14:13.382Z,5.73
2018-07-11T15:16:42.328Z,5.70
2018-07-11T15:19:11.384Z,5.20
2018-07-11T15:21:40.479Z,6.13
2018-07-11T15:24:09.651Z,6.20
2018-07-11T15:26:38.796Z,6.07
2018-07-11T15:29:07.779Z,7.13
2018-07-11T15:31:37.012Z,6.77
2018-07-11T15:34:06.426Z,6.57
2018-07-11T15:36:35.772Z,6.40
2018-07-11T15:39:05.533Z,6.50
2018-07-11T15:41:34.526Z,6.53
2018-07-11T15:44:03.498Z,6.40
2018-07-11T15:46:32.776Z,6.10
2018-07-11T15:49:01.779Z,5.80
2018-07-11T15:51:30.950Z,6.20
2018-07-11T15:54:00.127Z,5.70
2018-07-11T15:56:29.159Z,5.67
2018-07-11T15:59:05.448Z,5.27
2018-07-11T16:01:37.683Z,5.53
2018-07-11T16:04:06.738Z,5.00
2018-07-11T16:06:35.742Z,5.33
2018-07-11T16:09:05.032Z,4.97
2018-07-11T16:11:33.989Z,5.93
2018-07-11T16:14:02.970Z,5.63
2018-07-11T16:16:31.959Z,5.40
2018-07-11T16:19:00.924Z,6.10
2018-07-11T16:21:30.315Z,5.73
2018-07-11T16:23:59.673Z,5.70
2018-07-11T16:26:28.927Z,5.50
2018-07-11T16:28:58.004Z,6.47
2018-07-11T16:31:27.134Z,6.53
2018-07-11T16:33:56.191Z,6.87
2018-07-11T16:36:25.154Z,7.30
2018-07-11T16:38:54.135Z,6.90
2018-07-11T16:41:23.115Z,6.87
2018-07-11T16:43:53.584Z,6.90
2018-07-11T16:46:22.907Z,8.00
2018-07-11T16:48:52.759Z,7.60
2018-07-11T16:51:21.919Z,7.93
2018-07-11T16:53:50.951Z,7.33
2018-07-11T16:56:19.886Z,7.80
2018-07-11T16:58:52.270Z,7.27
2018-07-11T17:01:25.285Z,6.13
2018-07-11T17:03:54.263Z,5.50
2018-07-11T17:06:23.251Z,5.30
2018-07-11T17:08:52.705Z,5.37
2018-07-11T17:11:28.855Z,5.20
2018-07-11T17:13:59.288Z,4.33
2018-07-11T17:16:42.160Z,4.80
2018-07-11T17:19:13.974Z,4.40
2018-07-11T17:21:44.886Z,5.40
2018-07-11T17:24:18.279Z,5.37
2018-07-11T17:26:48.657Z,5.87
2018-07-11T17:29:22.557Z,5.10
2018-07-11T17:31:54.294Z,4.87
2018-07-11T17:34:23.723Z,4.77
2018-07-11T17:36:58.203Z,5.80
2018-07-11T17:39:35.775Z,5.20
2018-07-11T17:42:05.778Z,5.70
2018-07-11T17:44:34.763Z,5.57
2018-07-11T17:47:03.782Z,5.30
2018-07-11T17:49:34.455Z,4.83
2018-07-11T17:52:11.673Z,5.10
2018-07-11T17:54:50.768Z,4.97
2018-07-11T17:57:23.470Z,4.47
2018-07-11T18:00:01.312Z,4.60
2018-07-11T18:02:32.760Z,5.00
2018-07-11T18:05:04.525Z,4.87
2018-07-11T18:07:41.351Z,4.50
2018-07-11T18:10:11.790Z,4.47
2018-07-11T18:12:53.025Z,4.70
2018-07-11T18:15:31.740Z,4.90
2018-07-11T18:18:24.546Z,5.00
2018-07-11T18:23:06.166Z,4.70
2018-07-11T18:25:48.320Z,5.50
2018-07-11T18:28:26.538Z,5.17
2018-07-11T18:31:04.062Z,5.60
2018-07-11T18:34:41.158Z,5.33
2018-07-11T18:37:19.363Z,5.13
2018-07-11T18:39:57.028Z,4.70
2018-07-11T18:42:30.256Z,4.77
2018-07-11T18:46:12.380Z,5.10
2018-07-11T18:48:55.342Z,4.60
2018-07-11T18:53:36.632Z,4.90
2018-07-11T18:56:13.131Z,4.53
2018-07-11T18:58:49.258Z,4.60
2018-07-11T19:01:29.069Z,4.80
2018-07-11T19:04:09.007Z,4.63
2018-07-11T19:06:51.539Z,4.60
2018-07-11T19:09:35.919Z,4.87
2018-07-11T19:14:23.307Z,4.70
2018-07-11T19:17:02.417Z,4.33
2018-07-11T19:19:37.031Z,4.60
2018-07-11T19:24:17.759Z,4.13
2018-07-11T19:26:53.842Z,4.50
2018-07-11T19:29:36.451Z,4.37
2018-07-11T19:32:12.106Z,4.53
2018-07-11T19:34:51.243Z,5.10
2018-07-11T19:37:32.359Z,4.90
2018-07-11T19:42:49.386Z,4.60
2018-07-11T19:45:29.227Z,4.83
2018-07-11T19:50:10.955Z,5.10
2018-07-11T19:52:55.418Z,5.20
2018-07-11T19:55:37.643Z,5.27
2018-07-11T19:58:06.601Z,4.97
2018-07-11T20:00:35.578Z,5.27
2018-07-11T20:03:04.587Z,5.00
2018-07-11T20:05:33.701Z,5.20
2018-07-11T20:08:02.682Z,5.40
2018-07-11T20:10:31.714Z,5.40
2018-07-11T20:13:00.894Z,5.20
2018-07-11T20:15:29.899Z,5.70
2018-07-11T20:17:58.903Z,5.93
2018-07-11T20:20:28.747Z,5.27
2018-07-11T20:22:57.743Z,5.50
2018-07-11T20:25:26.745Z,5.43
2018-07-11T20:27:55.886Z,5.60
2018-07-11T20:30:24.963Z,5.60
2018-07-11T20:32:53.939Z,5.50
2018-07-11T20:35:22.954Z,5.17
2018-07-11T20:37:52.007Z,5.80
2018-07-11T20:40:20.970Z,5.57
2018-07-11T20:42:50.036Z,5.70
2018-07-11T20:45:19.003Z,5.60
2018-07-11T20:47:48.079Z,6.00
2018-07-11T20:50:17.088Z,6.40
2018-07-11T20:52:46.103Z,6.63
2018-07-11T20:55:15.143Z,6.20
2018-07-11T20:57:44.062Z,5.60
2018-07-11T21:00:24.260Z,6.13
2018-07-11T21:03:04.969Z,5.90
2018-07-11T21:05:50.631Z,5.77
2018-07-11T21:10:34.773Z,5.53
2018-07-11T21:15:15.998Z,6.73
2018-07-11T21:17:57.735Z,5.90
2018-07-11T21:20:26.762Z,6.37
2018-07-11T21:22:55.893Z,6.10
2018-07-11T21:25:24.786Z,5.87
2018-07-11T21:27:53.958Z,6.10
2018-07-11T21:30:22.954Z,5.70
2018-07-11T21:32:51.958Z,5.90
2018-07-11T21:35:20.942Z,6.17
2018-07-11T21:37:49.911Z,6.30
2018-07-11T21:40:18.883Z,5.80
2018-07-11T21:42:47.832Z,6.03
2018-07-11T21:45:16.888Z,6.63
2018-07-11T21:47:45.879Z,6.27
2018-07-11T21:50:14.830Z,6.30
2018-07-11T21:52:43.793Z,6.50
2018-07-11T21:55:12.811Z,6.17
2018-07-11T21:57:41.804Z,6.67
2018-07-11T22:00:11.283Z,7.40
2018-07-11T22:02:40.207Z,6.70
2018-07-11T22:05:09.191Z,6.13
2018-07-11T22:07:38.230Z,6.50
2018-07-11T22:10:07.200Z,5.93
2018-07-11T22:12:36.176Z,6.50
2018-07-11T22:15:05.167Z,5.77
2018-07-11T22:18:46.299Z,6.60
2018-07-11T22:21:15.058Z,6.33
2018-07-11T22:23:43.020Z,6.47
2018-07-11T22:26:10.990Z,6.47
2018-07-11T22:28:38.936Z,7.23
2018-07-11T22:31:06.886Z,6.93
2018-07-11T22:33:34.877Z,6.67
2018-07-11T22:36:02.871Z,7.00
2018-07-11T22:38:30.780Z,6.20
2018-07-11T22:40:58.747Z,6.27
2018-07-11T22:43:26.680Z,5.83
2018-07-11T22:45:54.621Z,6.70
2018-07-11T22:48:22.614Z,6.40
2018-07-11T22:50:50.563Z,7.07
2018-07-11T22:53:18.790Z,6.80
2018-07-11T22:55:46.760Z,7.23
2018-07-11T22:58:14.720Z,7.03
2018-07-11T23:00:42.637Z,7.47
2018-07-11T23:03:10.644Z,7.30
2018-07-11T23:05:38.576Z,7.77
2018-07-11T23:08:06.525Z,7.53
2018-07-11T23:10:34.503Z,7.03
2018-07-11T23:13:02.452Z,7.00
2018-07-11T23:15:30.428Z,7.47
2018-07-11T23:17:58.381Z,7.50
2018-07-11T23:20:26.358Z,7.00
2018-07-11T23:22:54.311Z,6.73
2018-07-11T23:25:22.278Z,6.97
2018-07-11T23:27:50.267Z,7.43
2018-07-11T23:30:18.251Z,7.20
2018-07-11T23:32:46.205Z,8.03
2018-07-11T23:35:14.215Z,7.10
2018-07-11T23:37:42.159Z,7.20
2018-07-11T23:40:10.146Z,7.20
2018-07-11T23:42:38.162Z,6.90
2018-07-11T23:45:06.108Z,6.97
2018-07-11T23:47:34.059Z,7.17
2018-07-11T23:50:02.017Z,7.90
2018-07-11T23:52:30.009Z,7.53
2018-07-11T23:54:57.985Z,7.70
2018-07-11T23:57:25.918Z,7.17
2018-07-11T23:59:53.895Z,7.47
